Airfield :
LOGIN :

Register | Disclaimer

   EN    FR    IT 

 










Legend :    VFR   Marginal VFR   IFR   Intensive IFR   Very Intensive IFR
Visi :
Ceiling :
>= 8 km
>= 3000ft
5 to 8 km
1000 to 3000 ft
1500m to 5 km
500 to 1000 ft
800 to 1500m
200 to 500 ft
< 800m
< 200 ft
Symbols :   Thunderstorms  Fog  Heavy snow  Heavy precipitations  Wind > 20 kt
SIGMETs :     Misc.  Thunderstorms  Icing  Turbulence  Mountain Waves  Volcanic Ashes







- Airport Elevation : 102 ft
- IATA code : CNG
- Download approach charts


LFBG - Cognac

CURRENT METAR :
  • 181700Z AUTO 19005KT 160V230 CAVOK 31/16 Q1008 NOSIG

EXPIRED METARs :
  • 181630Z AUTO 23008KT 190V250 CAVOK 31/15 Q1008 NOSIG
  • 181600Z AUTO 19008KT 140V240 CAVOK 32/16 Q1008 NOSIG
  • 181530Z AUTO 16007KT 120V190 CAVOK 31/17 Q1008 NOSIG
  • 181500Z AUTO 19006KT 160V230 CAVOK 30/15 Q1008 NOSIG
  • 181430Z AUTO 18007KT 140V220 CAVOK 31/15 Q1008 NOSIG

TAF TAF LFBG
Valid from the 18 at 15:00 until the 19 at 15:00 UTC


181400Z 1815/1915 21010KT CAVOK
BECMG 1819/1821 30010KT
TEMPO 1821/1901 VRB20G35KT 3000 TSRA BKN080CB
No reported NOTAMs for that airfield.



MET'MAP, your aeronautical weather chart ! - Copyright ORBIFLY December 2007 - Disclaimer

ORBIFLY MET'MAP TEAM :

Programming & Development : Alexandra Zaïnal
Concept & Development : Baudouin d'Aumeries
Co-Development & Prog : Marc-Olivier Méhu
Technical & hardware support : Manuel Goepfert

Contact : metmap@orbifly.com




SOURCES & CREDITS :

   NOAA